createdAt,value
2022-11-23T00:01:18.336Z,0.90
2022-11-23T00:03:47.285Z,0.90
2022-11-23T00:06:14.671Z,0.90
2022-11-23T00:08:41.624Z,0.90
2022-11-23T00:11:08.817Z,0.90
2022-11-23T00:13:36.303Z,0.90
2022-11-23T00:16:18.329Z,1.00
2022-11-23T00:18:45.480Z,1.00
2022-11-23T00:21:17.209Z,1.00
2022-11-23T00:23:45.034Z,1.00
2022-11-23T00:26:12.983Z,0.90
2022-11-23T00:28:40.790Z,0.90
2022-11-23T00:31:10.908Z,1.00
2022-11-23T00:33:38.312Z,1.00
2022-11-23T00:36:13.179Z,1.00
2022-11-23T00:38:40.352Z,1.00
2022-11-23T00:41:12.949Z,1.00
2022-11-23T00:43:40.516Z,1.00
2022-11-23T00:46:18.500Z,1.00
2022-11-23T00:48:47.841Z,1.00
2022-11-23T00:51:16.994Z,1.00
2022-11-23T00:53:44.549Z,1.00
2022-11-23T00:56:12.254Z,1.00
2022-11-23T00:58:39.736Z,1.00
2022-11-23T01:01:11.125Z,1.00
2022-11-23T01:03:41.055Z,1.00
2022-11-23T01:06:16.346Z,1.00
2022-11-23T01:08:51.278Z,1.00
2022-11-23T01:11:19.417Z,1.00
2022-11-23T01:13:46.367Z,1.00
2022-11-23T01:16:24.047Z,1.00
2022-11-23T01:18:59.526Z,1.00
2022-11-23T01:21:28.073Z,1.00
2022-11-23T01:23:55.605Z,1.00
2022-11-23T01:26:23.060Z,1.00
2022-11-23T01:28:50.883Z,1.10
2022-11-23T01:31:20.437Z,1.00
2022-11-23T01:33:47.961Z,1.00
2022-11-23T01:36:21.032Z,1.00
2022-11-23T01:38:49.010Z,1.00
2022-11-23T01:41:37.655Z,1.00
2022-11-23T01:44:26.407Z,1.00
2022-11-23T01:46:55.332Z,1.00
2022-11-23T01:49:22.521Z,1.00
2022-11-23T01:51:53.221Z,1.00
2022-11-23T01:54:39.745Z,0.90
2022-11-23T01:57:16.914Z,0.90
2022-11-23T01:59:45.048Z,0.90
2022-11-23T02:02:13.665Z,1.00
2022-11-23T02:04:44.090Z,1.00
2022-11-23T02:07:16.607Z,1.00
2022-11-23T02:09:45.855Z,1.00
2022-11-23T02:12:14.324Z,1.10
2022-11-23T02:14:43.556Z,1.10
2022-11-23T02:17:10.824Z,1.00
2022-11-23T02:19:53.614Z,1.00
2022-11-23T02:22:49.722Z,1.00
2022-11-23T02:25:28.966Z,1.00
2022-11-23T02:27:56.120Z,1.10
2022-11-23T02:30:23.266Z,1.10
2022-11-23T02:32:53.646Z,1.10
2022-11-23T02:35:20.653Z,1.10
2022-11-23T02:37:48.741Z,1.10
2022-11-23T02:40:31.077Z,1.10
2022-11-23T02:42:59.207Z,1.10
2022-11-23T02:45:34.826Z,1.10
2022-11-23T02:50:47.095Z,1.10
2022-11-23T02:53:14.206Z,1.10
2022-11-23T02:55:41.124Z,1.10
2022-11-23T02:58:08.693Z,1.10
2022-11-23T03:00:36.543Z,1.10
2022-11-23T03:03:03.857Z,1.10
2022-11-23T03:05:31.075Z,1.10
2022-11-23T03:07:58.380Z,1.10
2022-11-23T03:10:25.632Z,1.10
2022-11-23T03:12:55.608Z,1.10
2022-11-23T03:15:23.903Z,1.10
2022-11-23T03:17:50.957Z,1.20
2022-11-23T03:20:19.965Z,1.20
2022-11-23T03:22:49.693Z,1.20
2022-11-23T03:25:18.284Z,1.20
2022-11-23T03:27:48.129Z,1.20
2022-11-23T03:30:15.563Z,1.10
2022-11-23T03:32:43.109Z,1.10
2022-11-23T03:35:10.181Z,1.10
2022-11-23T03:37:49.312Z,1.20
2022-11-23T03:40:16.416Z,1.20
2022-11-23T03:43:03.820Z,1.10
2022-11-23T03:45:31.838Z,1.10
2022-11-23T03:47:58.744Z,1.10
2022-11-23T03:50:25.675Z,1.10
2022-11-23T03:52:52.612Z,1.10
2022-11-23T03:55:19.629Z,1.10
2022-11-23T03:57:48.974Z,1.20
2022-11-23T04:00:16.510Z,1.10
2022-11-23T04:02:45.556Z,1.10
2022-11-23T04:05:32.416Z,1.10
2022-11-23T04:08:31.697Z,1.00
2022-11-23T04:10:59.943Z,1.10
2022-11-23T04:13:48.176Z,1.10
2022-11-23T04:16:15.231Z,1.10
2022-11-23T04:18:42.267Z,1.20
2022-11-23T04:21:10.628Z,1.10
2022-11-23T04:23:37.737Z,1.10
2022-11-23T04:26:09.115Z,1.10
2022-11-23T04:28:39.848Z,1.10
2022-11-23T04:31:07.271Z,1.10
2022-11-23T04:33:44.422Z,1.20
2022-11-23T04:36:12.289Z,1.20
2022-11-23T04:38:39.457Z,1.20
2022-11-23T04:41:06.615Z,1.20
2022-11-23T04:43:33.483Z,1.20
2022-11-23T04:46:00.524Z,1.10
2022-11-23T04:48:30.360Z,1.20
2022-11-23T04:50:58.657Z,1.20
2022-11-23T04:53:34.325Z,1.20
2022-11-23T04:56:01.985Z,1.20
2022-11-23T04:58:34.739Z,1.20
2022-11-23T05:01:02.498Z,1.20
2022-11-23T05:03:31.460Z,1.10
2022-11-23T05:05:59.987Z,1.10
2022-11-23T05:08:32.696Z,1.10
2022-11-23T05:11:14.731Z,1.20
2022-11-23T05:13:42.576Z,1.10
2022-11-23T05:16:09.424Z,1.10
2022-11-23T05:18:38.694Z,1.10
2022-11-23T05:21:05.761Z,1.10
2022-11-23T05:23:32.613Z,1.10
2022-11-23T05:25:59.668Z,1.10
2022-11-23T05:28:42.283Z,1.20
2022-11-23T05:31:13.607Z,1.10
2022-11-23T05:33:42.439Z,1.10
2022-11-23T05:36:13.735Z,1.10
2022-11-23T05:38:42.054Z,1.10
2022-11-23T05:41:14.417Z,1.20
2022-11-23T05:43:43.944Z,1.20
2022-11-23T05:46:16.189Z,1.20
2022-11-23T05:48:43.172Z,1.20
2022-11-23T05:51:11.270Z,1.20
2022-11-23T05:53:43.780Z,1.10
2022-11-23T05:56:19.292Z,1.10
2022-11-23T05:59:05.385Z,1.20
2022-11-23T06:01:35.376Z,1.10
2022-11-23T06:04:06.533Z,1.20
2022-11-23T06:06:38.321Z,1.10
2022-11-23T06:09:05.319Z,1.10
2022-11-23T06:11:35.439Z,1.10
2022-11-23T06:14:14.021Z,1.10
2022-11-23T06:16:42.298Z,1.10
2022-11-23T06:19:30.690Z,1.20
2022-11-23T06:21:58.545Z,1.20
2022-11-23T06:24:27.388Z,1.10
2022-11-23T06:27:18.407Z,1.10
2022-11-23T06:29:47.215Z,1.20
2022-11-23T06:32:14.670Z,1.20
2022-11-23T06:34:42.573Z,1.20
2022-11-23T06:37:09.975Z,1.20
2022-11-23T06:39:36.996Z,1.10
2022-11-23T06:42:23.694Z,1.10
2022-11-23T06:44:53.133Z,1.10
2022-11-23T06:47:25.987Z,1.10
2022-11-23T06:49:53.561Z,1.20
2022-11-23T06:52:26.534Z,1.20
2022-11-23T06:54:54.273Z,1.20
2022-11-23T06:57:22.483Z,1.30
2022-11-23T06:59:49.878Z,1.30
2022-11-23T07:02:22.012Z,1.30
2022-11-23T07:04:51.546Z,1.30
2022-11-23T07:07:20.795Z,1.30
2022-11-23T07:09:57.536Z,1.30
2022-11-23T07:12:42.771Z,1.20
2022-11-23T07:15:10.847Z,1.30
2022-11-23T07:17:40.592Z,1.30
2022-11-23T07:20:11.414Z,1.30
2022-11-23T07:22:39.007Z,1.30
2022-11-23T07:25:06.541Z,1.30
2022-11-23T07:27:33.468Z,1.30
2022-11-23T07:30:02.343Z,1.30
2022-11-23T07:32:29.217Z,1.30
2022-11-23T07:34:56.169Z,1.30
2022-11-23T07:37:23.136Z,1.30
2022-11-23T07:39:57.907Z,1.30
2022-11-23T07:42:39.809Z,1.30
2022-11-23T07:45:11.125Z,1.30
2022-11-23T07:47:40.937Z,1.30
2022-11-23T07:50:10.012Z,1.30
2022-11-23T07:52:37.806Z,1.30
2022-11-23T07:55:05.936Z,1.30
2022-11-23T07:57:32.758Z,1.30
2022-11-23T07:59:59.898Z,1.30
2022-11-23T08:02:27.063Z,1.30
2022-11-23T08:04:55.472Z,1.40
2022-11-23T08:07:22.563Z,1.40
2022-11-23T08:09:49.482Z,1.40
2022-11-23T08:12:16.380Z,1.40
2022-11-23T08:14:43.430Z,1.30
2022-11-23T08:17:10.600Z,1.40
2022-11-23T08:19:37.453Z,1.40
2022-11-23T08:22:04.504Z,1.40
2022-11-23T08:24:32.155Z,1.40
2022-11-23T08:26:59.386Z,1.40
2022-11-23T08:29:26.366Z,1.50
2022-11-23T08:31:53.342Z,1.50
2022-11-23T08:34:20.325Z,1.50
2022-11-23T08:36:48.166Z,1.40
2022-11-23T08:39:16.351Z,1.50
2022-11-23T08:41:43.217Z,1.50
2022-11-23T08:44:11.337Z,1.50
2022-11-23T08:46:39.045Z,1.50
2022-11-23T08:49:06.254Z,1.50
2022-11-23T08:51:33.890Z,1.40
2022-11-23T08:54:00.876Z,1.40
2022-11-23T08:56:27.866Z,1.40
2022-11-23T08:58:54.967Z,1.50
2022-11-23T09:01:21.914Z,1.40
2022-11-23T09:03:48.918Z,1.50
2022-11-23T09:06:15.846Z,1.50
2022-11-23T09:08:42.857Z,1.40
2022-11-23T09:11:14.049Z,1.40
2022-11-23T09:13:41.082Z,1.50
2022-11-23T09:16:08.892Z,1.50
2022-11-23T09:18:36.719Z,1.50
2022-11-23T09:21:05.737Z,1.50
2022-11-23T09:23:33.022Z,1.50
2022-11-23T09:26:03.842Z,1.60
2022-11-23T09:28:32.027Z,1.60
2022-11-23T09:30:58.900Z,1.60
2022-11-23T09:33:27.028Z,1.70
2022-11-23T09:36:01.629Z,1.70
2022-11-23T09:38:44.809Z,1.70
2022-11-23T09:41:39.637Z,1.70
2022-11-23T09:44:21.504Z,1.80
2022-11-23T09:47:07.093Z,1.70
2022-11-23T09:49:50.126Z,1.80
2022-11-23T09:52:20.646Z,1.70
2022-11-23T09:54:49.905Z,1.70
2022-11-23T09:57:23.948Z,1.70
2022-11-23T10:00:28.201Z,1.70
2022-11-23T10:02:55.145Z,1.60
2022-11-23T10:05:25.451Z,1.60
2022-11-23T10:08:19.754Z,1.60
2022-11-23T10:11:14.489Z,1.70
2022-11-23T10:13:52.185Z,1.70
2022-11-23T10:16:28.233Z,1.70
2022-11-23T10:19:30.394Z,1.70
2022-11-23T10:22:09.781Z,1.70
2022-11-23T10:24:50.341Z,1.70
2022-11-23T10:27:22.406Z,1.70
2022-11-23T10:29:50.486Z,1.70
2022-11-23T10:32:30.590Z,1.70
2022-11-23T10:35:04.192Z,1.80
2022-11-23T10:37:32.970Z,1.70
2022-11-23T10:40:00.010Z,1.70
2022-11-23T10:42:40.619Z,1.70
2022-11-23T10:45:21.521Z,1.70
2022-11-23T10:48:00.463Z,1.70
2022-11-23T10:50:34.822Z,1.80
2022-11-23T10:53:26.205Z,1.80
2022-11-23T10:55:56.385Z,1.90
2022-11-23T10:58:35.056Z,1.80
2022-11-23T11:01:09.467Z,1.80
2022-11-23T11:03:36.435Z,1.80
2022-11-23T11:06:09.071Z,1.80
2022-11-23T11:08:51.761Z,1.90
2022-11-23T11:11:27.868Z,1.80
2022-11-23T11:14:17.679Z,1.80
2022-11-23T11:16:53.740Z,1.70
2022-11-23T11:19:29.383Z,1.70
2022-11-23T11:21:57.739Z,1.70
2022-11-23T11:24:37.999Z,1.60
2022-11-23T11:27:12.917Z,1.50
2022-11-23T11:29:48.461Z,1.50
2022-11-23T11:32:24.597Z,1.50
2022-11-23T11:35:20.653Z,1.50
2022-11-23T11:37:51.210Z,1.50
2022-11-23T11:40:20.418Z,1.50
2022-11-23T11:43:12.435Z,1.50
2022-11-23T11:48:55.713Z,1.60
2022-11-23T11:51:27.869Z,1.60
2022-11-23T11:54:03.280Z,1.70
2022-11-23T11:56:55.623Z,1.70
2022-11-23T11:59:30.675Z,1.70
2022-11-23T12:02:32.173Z,1.70
2022-11-23T12:05:14.108Z,1.70
2022-11-23T12:08:17.620Z,1.70
2022-11-23T12:10:58.104Z,1.70
2022-11-23T12:13:34.841Z,1.70
2022-11-23T12:16:19.160Z,1.70
2022-11-23T12:19:01.159Z,1.70
2022-11-23T12:21:48.987Z,1.70
2022-11-23T12:25:14.365Z,1.80
2022-11-23T12:28:02.117Z,1.80
2022-11-23T12:30:55.981Z,1.70
2022-11-23T12:33:55.327Z,1.70
2022-11-23T12:36:31.269Z,1.70
2022-11-23T12:39:45.534Z,1.70
2022-11-23T12:42:15.141Z,1.70
2022-11-23T12:44:49.160Z,1.70
2022-11-23T12:47:35.220Z,1.70
2022-11-23T12:50:10.020Z,1.60
2022-11-23T12:53:14.534Z,1.70
2022-11-23T12:55:41.477Z,1.60
2022-11-23T12:58:25.787Z,1.60
2022-11-23T13:00:59.224Z,1.60
2022-11-23T13:03:38.526Z,1.60
2022-11-23T13:06:25.417Z,1.60
2022-11-23T13:09:11.213Z,1.60
2022-11-23T13:11:41.078Z,1.60
2022-11-23T13:14:13.653Z,1.50
2022-11-23T13:16:59.324Z,1.60
2022-11-23T13:19:37.428Z,1.60
2022-11-23T13:22:06.484Z,1.60
2022-11-23T13:24:37.649Z,1.60
2022-11-23T13:27:14.026Z,1.50
2022-11-23T13:29:50.253Z,1.50
2022-11-23T13:32:35.649Z,1.50
2022-11-23T13:35:02.581Z,1.50
2022-11-23T13:37:29.448Z,1.50
2022-11-23T13:39:57.359Z,1.50
2022-11-23T13:42:27.994Z,1.50
2022-11-23T13:45:17.815Z,1.50
2022-11-23T13:48:09.533Z,1.50
2022-11-23T13:50:39.161Z,1.50
2022-11-23T13:53:35.584Z,1.40
2022-11-23T13:56:29.338Z,1.50
2022-11-23T13:59:16.272Z,1.50
2022-11-23T14:02:12.595Z,1.50
2022-11-23T14:04:44.413Z,1.50
2022-11-23T14:07:38.365Z,1.50
2022-11-23T14:10:21.387Z,1.40
2022-11-23T14:13:14.385Z,1.40
2022-11-23T14:15:51.748Z,1.40
2022-11-23T14:18:42.977Z,1.50
2022-11-23T14:21:22.452Z,1.50
2022-11-23T14:24:11.202Z,1.50
2022-11-23T14:27:30.848Z,1.40
2022-11-23T14:29:58.942Z,1.40
2022-11-23T14:32:50.309Z,1.40
2022-11-23T14:35:21.347Z,1.40
2022-11-23T14:38:15.297Z,1.40
2022-11-23T14:40:57.201Z,1.40
2022-11-23T14:43:26.297Z,1.40
2022-11-23T14:45:59.851Z,1.40
2022-11-23T14:48:35.986Z,1.40
2022-11-23T14:51:18.153Z,1.40
2022-11-23T14:53:52.144Z,1.40
2022-11-23T14:56:36.184Z,1.40
2022-11-23T14:59:09.440Z,1.40
2022-11-23T15:01:38.269Z,1.40
2022-11-23T15:04:10.922Z,1.30
2022-11-23T15:06:45.780Z,1.30
2022-11-23T15:09:30.526Z,1.30
2022-11-23T15:12:08.623Z,1.30
2022-11-23T15:14:35.937Z,1.30
2022-11-23T15:17:18.562Z,1.30
2022-11-23T15:20:00.505Z,1.30
2022-11-23T15:22:28.718Z,1.30
2022-11-23T15:25:06.270Z,1.30
2022-11-23T15:27:33.107Z,1.20
2022-11-23T15:30:00.820Z,1.20
2022-11-23T15:32:34.650Z,1.10
2022-11-23T15:35:08.417Z,1.10
2022-11-23T15:37:45.050Z,1.10
2022-11-23T15:40:14.913Z,1.10
2022-11-23T15:42:43.584Z,1.10
2022-11-23T15:45:41.597Z,1.10
2022-11-23T15:48:11.499Z,1.10
2022-11-23T15:51:00.172Z,1.10
2022-11-23T15:53:49.563Z,1.10
2022-11-23T15:56:32.073Z,1.20
2022-11-23T15:59:02.435Z,1.10
2022-11-23T16:01:29.689Z,1.10
2022-11-23T16:04:04.945Z,1.10
2022-11-23T16:06:37.606Z,1.10
2022-11-23T16:12:23.030Z,1.10
2022-11-23T16:14:52.057Z,1.10
2022-11-23T16:17:20.730Z,1.10
2022-11-23T16:19:49.227Z,1.10
2022-11-23T16:22:38.765Z,1.10
2022-11-23T16:25:33.205Z,1.20
2022-11-23T16:28:01.773Z,1.20
2022-11-23T16:30:49.325Z,1.20
2022-11-23T16:33:18.784Z,1.10
2022-11-23T16:35:45.860Z,1.10
2022-11-23T16:38:13.129Z,1.10
2022-11-23T16:40:43.761Z,1.10
2022-11-23T16:43:12.545Z,1.10
2022-11-23T16:45:41.093Z,1.10
2022-11-23T16:48:26.220Z,1.10
2022-11-23T16:50:57.161Z,1.20
2022-11-23T16:53:26.937Z,1.20
2022-11-23T16:55:55.550Z,1.10
2022-11-23T16:58:23.117Z,1.10
2022-11-23T17:00:50.362Z,1.20
2022-11-23T17:03:19.372Z,1.20
2022-11-23T17:05:46.707Z,1.20
2022-11-23T17:08:18.161Z,1.20
2022-11-23T17:10:50.006Z,1.20
2022-11-23T17:13:21.148Z,1.20
2022-11-23T17:15:48.329Z,1.20
2022-11-23T17:18:15.688Z,1.20
2022-11-23T17:20:42.696Z,1.20
2022-11-23T17:23:09.786Z,1.20
2022-11-23T17:25:37.947Z,1.20
2022-11-23T17:28:06.161Z,1.20
2022-11-23T17:30:33.085Z,1.20
2022-11-23T17:33:00.565Z,1.20
2022-11-23T17:35:28.105Z,1.20
2022-11-23T17:37:54.955Z,1.30
2022-11-23T17:40:23.593Z,1.30
2022-11-23T17:42:50.430Z,1.30
2022-11-23T17:45:17.259Z,1.30
2022-11-23T17:47:45.316Z,1.30
2022-11-23T17:50:19.146Z,1.30
2022-11-23T17:52:47.876Z,1.30
2022-11-23T17:55:15.740Z,1.30
2022-11-23T17:57:43.022Z,1.30
2022-11-23T18:00:20.018Z,1.30
2022-11-23T18:02:47.108Z,1.30
2022-11-23T18:05:19.666Z,1.30
2022-11-23T18:07:48.750Z,1.30
2022-11-23T18:10:16.459Z,1.30
2022-11-23T18:12:44.674Z,1.30
2022-11-23T18:15:12.101Z,1.30
2022-11-23T18:17:40.686Z,1.20
2022-11-23T18:20:10.072Z,1.20
2022-11-23T18:22:37.166Z,1.30
2022-11-23T18:25:04.302Z,1.30
2022-11-23T18:27:31.152Z,1.20
2022-11-23T18:29:58.257Z,1.30
2022-11-23T18:32:25.258Z,1.30
2022-11-23T18:34:52.106Z,1.30
2022-11-23T18:37:18.926Z,1.30
2022-11-23T18:39:46.206Z,1.30
2022-11-23T18:42:14.164Z,1.40
2022-11-23T18:44:41.239Z,1.40
2022-11-23T18:47:08.622Z,1.40
2022-11-23T18:49:35.857Z,1.40
2022-11-23T18:52:02.909Z,1.40
2022-11-23T18:54:29.736Z,1.40
2022-11-23T18:56:56.628Z,1.40
2022-11-23T19:02:11.537Z,1.40
2022-11-23T19:04:41.171Z,1.50
2022-11-23T19:07:08.292Z,1.50
2022-11-23T19:09:35.597Z,1.40
2022-11-23T19:12:02.713Z,1.40
2022-11-23T19:14:29.573Z,1.40
2022-11-23T19:16:56.437Z,1.40
2022-11-23T19:19:23.290Z,1.40
2022-11-23T19:21:50.240Z,1.40
2022-11-23T19:24:17.240Z,1.50
2022-11-23T19:26:44.098Z,1.40
2022-11-23T19:29:11.188Z,1.40
2022-11-23T19:31:38.155Z,1.40
2022-11-23T19:34:06.448Z,1.40
2022-11-23T19:36:36.445Z,1.40
2022-11-23T19:39:05.240Z,1.40
2022-11-23T19:41:33.266Z,1.40
2022-11-23T19:44:01.168Z,1.40
2022-11-23T19:46:29.952Z,1.40
2022-11-23T19:48:58.091Z,1.40
2022-11-23T19:51:26.235Z,1.40
2022-11-23T19:53:54.767Z,1.40
2022-11-23T19:56:24.054Z,1.40
2022-11-23T19:58:52.278Z,1.40
2022-11-23T20:01:22.127Z,1.40
2022-11-23T20:03:51.353Z,1.40
2022-11-23T20:06:21.943Z,1.40
2022-11-23T20:08:54.986Z,1.40
2022-11-23T20:11:22.101Z,1.40
2022-11-23T20:13:49.112Z,1.40
2022-11-23T20:16:18.026Z,1.40
2022-11-23T20:18:46.215Z,1.40
2022-11-23T20:21:14.063Z,1.40
2022-11-23T20:23:41.118Z,1.40
2022-11-23T20:26:09.189Z,1.40
2022-11-23T20:28:35.962Z,1.40
2022-11-23T20:31:07.191Z,1.40
2022-11-23T20:33:34.138Z,1.30
2022-11-23T20:36:14.002Z,1.30
2022-11-23T20:38:41.413Z,1.40
2022-11-23T20:41:15.957Z,1.40
2022-11-23T20:43:44.693Z,1.40
2022-11-23T20:46:12.297Z,1.30
2022-11-23T20:48:40.823Z,1.30
2022-11-23T20:51:10.823Z,1.30
2022-11-23T20:53:37.973Z,1.30
2022-11-23T20:56:08.437Z,1.30
2022-11-23T20:58:35.958Z,1.30
2022-11-23T21:01:11.061Z,1.30
2022-11-23T21:03:39.558Z,1.30
2022-11-23T21:06:08.780Z,1.30
2022-11-23T21:08:35.876Z,1.30
2022-11-23T21:11:34.450Z,1.30
2022-11-23T21:14:17.176Z,1.30
2022-11-23T21:16:55.199Z,1.40
2022-11-23T21:19:26.518Z,1.40
2022-11-23T21:21:53.977Z,1.40
2022-11-23T21:24:21.393Z,1.40
2022-11-23T21:26:48.430Z,1.40
2022-11-23T21:29:16.541Z,1.40
2022-11-23T21:31:45.242Z,1.40
2022-11-23T21:34:20.109Z,1.40
2022-11-23T21:36:47.831Z,1.40
2022-11-23T21:39:15.147Z,1.40
2022-11-23T21:41:42.895Z,1.40
2022-11-23T21:44:10.532Z,1.50
2022-11-23T21:46:39.303Z,1.40
2022-11-23T21:49:09.134Z,1.50
2022-11-23T21:51:37.125Z,1.50
2022-11-23T21:54:05.358Z,1.40
2022-11-23T21:56:32.684Z,1.40
2022-11-23T21:58:59.659Z,1.40
2022-11-23T22:01:31.801Z,1.50
2022-11-23T22:04:01.749Z,1.40
2022-11-23T22:06:28.998Z,1.50
2022-11-23T22:08:57.227Z,1.40
2022-11-23T22:11:28.987Z,1.40
2022-11-23T22:13:58.442Z,1.50
2022-11-23T22:16:28.164Z,1.50
2022-11-23T22:18:56.310Z,1.50
2022-11-23T22:21:25.143Z,1.50
2022-11-23T22:23:52.302Z,1.50
2022-11-23T22:26:20.678Z,1.50
2022-11-23T22:28:50.132Z,1.50
2022-11-23T22:31:19.655Z,1.50
2022-11-23T22:33:47.160Z,1.50
2022-11-23T22:36:16.061Z,1.50
2022-11-23T22:38:43.461Z,1.40
2022-11-23T22:41:12.391Z,1.40
2022-11-23T22:43:40.023Z,1.40
2022-11-23T22:46:10.805Z,1.50
2022-11-23T22:48:39.413Z,1.40
2022-11-23T22:51:07.694Z,1.40
2022-11-23T22:53:34.681Z,1.50
2022-11-23T22:56:03.468Z,1.50
2022-11-23T22:58:31.455Z,1.50
2022-11-23T23:01:05.660Z,1.40
2022-11-23T23:03:32.734Z,1.50
2022-11-23T23:06:00.017Z,1.50
2022-11-23T23:08:28.006Z,1.50
2022-11-23T23:10:55.318Z,1.50
2022-11-23T23:13:23.283Z,1.50
2022-11-23T23:16:10.716Z,1.50
2022-11-23T23:18:37.858Z,1.50
2022-11-23T23:21:11.064Z,1.50
2022-11-23T23:23:44.048Z,1.50
2022-11-23T23:26:12.620Z,1.50
2022-11-23T23:28:40.228Z,1.50
2022-11-23T23:31:09.801Z,1.50
2022-11-23T23:33:37.369Z,1.50
2022-11-23T23:36:08.372Z,1.50
2022-11-23T23:38:36.747Z,1.50
2022-11-23T23:41:04.728Z,1.50
2022-11-23T23:43:31.785Z,1.50
2022-11-23T23:46:00.377Z,1.50
2022-11-23T23:48:32.363Z,1.40
2022-11-23T23:51:05.045Z,1.50
2022-11-23T23:53:36.425Z,1.40
2022-11-23T23:56:07.612Z,1.40
2022-11-23T23:58:35.323Z,1.40
